Time;durP1;ratioP1;P1;durP2;ratioP2;P2;SDS_P1;SDS_P2;PMS_P1;PMS_P2;Temp;Humidity;BMP_temperature;BMP_pressure;BME280_temperature;BME280_humidity;BME280_pressure;Samples;Min_cycle;Max_cycle;Signal;HPM_P1;HPM_P2
2023/09/11 00:00:04;;;;;;;7.10;2.00;;;;;;;15.36;66.21;99741.94;4992482;28;20101;-96
2023/09/11 00:02:48;;;;;;;4.90;1.65;;;;;;;15.45;66.26;99761.09;4976791;29;20027;-96
2023/09/11 00:05:19;;;;;;;3.65;1.98;;;;;;;15.34;66.31;99739.50;4960479;29;20036;-96
2023/09/11 00:07:57;;;;;;;5.60;1.80;;;;;;;15.30;66.46;99745.81;4960082;29;20063;-96
2023/09/11 00:10:36;;;;;;;5.07;1.75;;;;;;;15.14;66.75;99745.19;4976093;29;20096;-96
2023/09/11 00:13:07;;;;;;;2.00;1.50;;;;;;;15.12;67.08;99741.97;4974578;29;20042;-96
2023/09/11 00:15:45;;;;;;;2.38;1.50;;;;;;;15.25;66.64;99760.25;4960062;28;20040;-96
2023/09/11 00:18:23;;;;;;;3.58;1.70;;;;;;;15.22;67.02;99765.44;4976975;28;20023;-96
2023/09/11 00:20:58;;;;;;;2.40;1.50;;;;;;;14.99;67.22;99743.47;4992186;28;20069;-96
2023/09/11 00:23:35;;;;;;;6.00;2.10;;;;;;;14.97;66.91;99740.22;4960456;29;20139;-96
2023/09/11 00:26:16;;;;;;;3.55;1.90;;;;;;;14.94;67.38;99747.03;4992226;28;20047;-96
2023/09/11 00:28:42;;;;;;;3.33;1.80;;;;;;;14.89;67.20;99743.56;4976626;29;20064;-96
2023/09/11 00:31:19;;;;;;;3.45;1.83;;;;;;;14.87;67.47;99741.16;4975684;28;20035;-94
2023/09/11 00:34:02;;;;;;;7.00;2.20;;;;;;;14.82;67.26;99738.50;4960153;29;20103;-96
2023/09/11 00:36:37;;;;;;;5.93;1.83;;;;;;;14.81;67.84;99752.34;4991447;28;20040;-96
2023/09/11 00:39:21;;;;;;;;;;;;;;;;;;;;;
2023/09/11 00:41:53;;;;;;;3.38;2.03;;;;;;;14.67;67.92;99738.66;4974596;29;20073;-96
2023/09/11 00:44:24;;;;;;;7.13;2.33;;;;;;;14.84;68.43;99768.84;4974927;28;20057;-96
2023/09/11 00:46:54;;;;;;;4.32;1.90;;;;;;;14.64;68.33;99740.03;4960033;29;20107;-96
2023/09/11 00:49:43;;;;;;;3.67;2.00;;;;;;;14.58;68.42;99743.88;4959617;29;20058;-96
2023/09/11 00:52:18;;;;;;;;;;;;;;;;;;;;;
2023/09/11 00:55:09;;;;;;;3.28;1.85;;;;;;;14.48;68.56;99741.25;4976218;29;20055;-96
2023/09/11 00:57:39;;;;;;;2.30;1.67;;;;;;;14.53;68.69;99760.19;4961858;28;20039;-96
2023/09/11 01:00:11;;;;;;;3.20;1.65;;;;;;;14.26;69.10;99737.09;4974942;29;20063;-96
2023/09/11 01:03:04;;;;;;;;;;;;;;;;;;;;;
2023/09/11 01:05:51;;;;;;;;;;;;;;;;;;;;;
2023/09/11 01:08:22;;;;;;;4.28;1.80;;;;;;;14.28;69.60;99756.59;4978362;28;20053;-96
2023/09/11 01:10:53;;;;;;;5.75;1.70;;;;;;;14.29;69.67;99760.91;4962646;29;20067;-96
2023/09/11 01:13:40;;;;;;;;;;;;;;;;;;;;;
2023/09/11 01:16:44;;;;;;;4.13;2.10;;;;;;;14.09;69.71;99739.38;4983651;28;20062;-96
2023/09/11 01:19:28;;;;;;;5.53;1.90;;;;;;;14.29;69.44;99760.09;4991656;28;20029;-96
2023/09/11 01:22:07;;;;;;;6.05;2.15;;;;;;;14.23;69.89;99762.03;4997261;28;20051;-96
2023/09/11 01:25:04;;;;;;;7.32;2.40;;;;;;;14.05;70.20;99732.94;4997618;28;20030;-96
2023/09/11 01:28:21;;;;;;;6.90;2.13;;;;;;;14.24;69.91;99760.16;4997625;28;20062;-96
2023/09/11 01:30:56;;;;;;;4.30;2.05;;;;;;;14.05;70.53;99738.34;4996938;28;20045;-95
2023/09/11 01:33:42;;;;;;;4.35;2.30;;;;;;;14.02;70.48;99734.31;4949604;28;20051;-96
2023/09/11 01:36:13;;;;;;;9.10;2.33;;;;;;;14.01;70.83;99746.25;4958122;28;20023;-96
2023/09/11 01:38:46;;;;;;;5.18;2.55;;;;;;;14.04;70.43;99751.06;4974326;28;20063;-96
2023/09/11 01:41:14;;;;;;;9.02;2.13;;;;;;;14.06;70.71;99751.59;4958438;28;20038;-96
2023/09/11 01:43:53;;;;;;;6.25;2.08;;;;;;;13.98;70.34;99737.88;4952257;29;20047;-96
2023/09/11 01:46:19;;;;;;;3.25;2.10;;;;;;;14.01;70.61;99750.81;4971515;28;20074;-96
2023/09/11 01:48:52;;;;;;;4.25;2.10;;;;;;;13.90;70.36;99723.03;4955603;29;20054;-96
2023/09/11 01:51:45;;;;;;;4.88;3.10;;;;;;;14.03;70.46;99740.53;4971206;28;20039;-96
2023/09/11 01:54:14;;;;;;;5.47;2.78;;;;;;;13.96;70.71;99743.56;4956844;29;20066;-96
2023/09/11 01:56:46;;;;;;;4.45;2.70;;;;;;;13.83;70.93;99726.06;4955164;29;20050;-96
2023/09/11 01:59:29;;;;;;;7.35;2.90;;;;;;;13.91;70.77;99739.00;4955553;28;20035;-96
2023/09/11 02:02:13;;;;;;;4.95;2.53;;;;;;;13.80;70.79;99721.22;4976514;29;20043;-96
2023/09/11 02:08:09;;;;;;;4.78;3.38;;;;;;;13.68;71.11;99720.75;4977651;29;20059;-96
2023/09/11 02:17:16;;;;;;;3.88;2.95;;;;;;;13.32;71.59;99716.34;4969692;28;20041;-96
2023/09/11 02:19:51;;;;;;;7.60;3.35;;;;;;;13.39;71.19;99717.94;4953837;29;20030;-96
2023/09/11 02:22:19;;;;;;;5.63;2.80;;;;;;;13.50;70.86;99731.13;4971316;29;20036;-96
2023/09/11 02:24:45;;;;;;;9.57;2.75;;;;;;;13.52;71.37;99742.47;4970675;29;20043;-95
2023/09/11 02:27:18;;;;;;;7.35;3.08;;;;;;;13.53;70.79;99735.97;4954132;29;20039;-96
2023/09/11 02:30:04;;;;;;;10.85;3.40;;;;;;;13.49;71.27;99732.22;4970760;29;20039;-96
2023/09/11 02:32:37;;;;;;;6.05;3.28;;;;;;;13.45;70.96;99722.25;4970100;28;20099;-96
2023/09/11 02:35:48;;;;;;;6.40;3.20;;;;;;;13.42;71.36;99731.69;4955953;28;20031;-96
2023/09/11 02:38:18;;;;;;;11.75;4.35;;;;;;;13.56;71.54;99744.63;4953779;28;20031;-96
2023/09/11 02:40:49;;;;;;;5.20;3.40;;;;;;;13.54;71.20;99751.13;4953416;29;20188;-96
2023/09/11 02:43:21;;;;;;;4.95;2.97;;;;;;;13.40;71.67;99739.28;4952572;29;20055;-96
2023/09/11 02:45:50;;;;;;;7.03;3.28;;;;;;;13.44;71.26;99740.34;4915074;29;20044;-96
2023/09/11 02:48:22;;;;;;;3.33;2.72;;;;;;;13.54;71.00;99748.41;4931328;29;20040;-96
2023/09/11 02:50:51;;;;;;;4.50;3.47;;;;;;;13.37;71.52;99728.22;4899956;29;20119;-96
2023/09/11 02:53:41;;;;;;;7.22;2.95;;;;;;;13.40;71.36;99725.75;4916693;29;20040;-96
2023/09/11 02:56:14;;;;;;;4.57;2.75;;;;;;;13.44;71.42;99742.25;4917292;29;20063;-96
2023/09/11 02:59:14;;;;;;;5.30;2.70;;;;;;;13.33;71.46;99717.94;4914852;29;20048;-96
2023/09/11 03:01:44;;;;;;;2.97;2.67;;;;;;;13.18;71.90;99711.75;4895692;29;20036;-96
2023/09/11 03:04:12;;;;;;;5.65;3.95;;;;;;;13.24;71.83;99727.72;4881489;29;20535;-96
2023/09/11 03:06:40;;;;;;;3.63;2.80;;;;;;;13.15;72.03;99723.94;4880846;29;20522;-96
2023/09/11 03:09:16;;;;;;;5.43;2.60;;;;;;;13.31;71.73;99746.38;4898618;29;20035;-96
2023/09/11 03:11:45;;;;;;;5.25;2.80;;;;;;;13.21;71.79;99744.47;4918499;29;20530;-96
2023/09/11 03:14:13;;;;;;;5.32;2.45;;;;;;;13.14;71.90;99736.66;4902395;29;20039;-96
2023/09/11 03:16:47;;;;;;;3.50;2.40;;;;;;;13.05;71.66;99713.19;4915579;28;20043;-96
2023/09/11 03:19:21;;;;;;;3.97;2.70;;;;;;;13.04;72.03;99725.09;4951592;28;20041;-95
2023/09/11 03:21:51;;;;;;;7.70;2.70;;;;;;;12.97;72.03;99727.25;4949060;28;20035;-96
2023/09/11 03:24:18;;;;;;;4.97;2.85;;;;;;;12.93;72.19;99730.53;4963152;28;20142;-96
2023/09/11 03:26:43;;;;;;;4.43;2.60;;;;;;;12.84;72.80;99718.66;4947788;28;20417;-96
2023/09/11 03:29:09;;;;;;;6.25;2.67;;;;;;;12.81;72.88;99713.00;4946717;28;20034;-95
2023/09/11 03:31:34;;;;;;;7.47;2.60;;;;;;;12.80;73.11;99727.59;4944339;28;20050;-96
2023/09/11 03:34:00;;;;;;;6.60;2.83;;;;;;;12.66;73.34;99722.75;4944691;29;20111;-95
2023/09/11 03:36:25;;;;;;;6.47;2.58;;;;;;;12.65;73.43;99734.63;4943931;29;20481;-95
2023/09/11 03:38:51;;;;;;;5.80;2.60;;;;;;;12.69;73.29;99737.59;4943104;29;20039;-96
2023/09/11 03:41:19;;;;;;;218.73;20.63;;;;;;;12.64;73.38;99727.63;4943356;29;20043;-95
2023/09/11 03:43:44;;;;;;;8.38;3.00;;;;;;;12.64;73.20;99737.63;4941866;28;20059;-95
2023/09/11 03:46:12;;;;;;;10.35;2.85;;;;;;;12.60;73.32;99731.97;4959679;29;20046;-96
2023/09/11 03:48:38;;;;;;;7.03;2.78;;;;;;;12.54;73.39;99730.34;4942574;29;20035;-96
2023/09/11 03:51:03;;;;;;;5.53;2.83;;;;;;;12.63;73.34;99744.91;4943556;29;20062;-95
2023/09/11 03:53:29;;;;;;;6.78;2.70;;;;;;;12.52;73.36;99729.81;4944119;29;20044;-96
2023/09/11 03:55:54;;;;;;;7.88;2.88;;;;;;;12.53;73.32;99734.13;4943663;29;20075;-96
2023/09/11 03:58:20;;;;;;;5.55;3.10;;;;;;;12.54;73.18;99738.44;4944046;29;20121;-96
2023/09/11 04:00:50;;;;;;;10.00;3.00;;;;;;;12.47;73.09;99732.50;4959993;29;20072;-96
2023/09/11 04:03:16;;;;;;;7.90;3.38;;;;;;;12.44;73.29;99722.25;4958243;29;20046;-95
2023/09/11 04:05:41;;;;;;;5.60;3.17;;;;;;;12.50;73.47;99735.47;4959717;29;20122;-96
2023/09/11 04:08:07;;;;;;;7.85;3.40;;;;;;;12.45;73.17;99734.66;4942351;29;20109;-96
2023/09/11 04:10:35;;;;;;;7.35;3.00;;;;;;;12.29;74.03;99748.19;4963595;29;20039;-96
2023/09/11 04:13:12;;;;;;;7.18;3.40;;;;;;;12.11;74.51;99738.72;4946389;29;20027;-95
2023/09/11 04:15:45;;;;;;;7.72;3.05;;;;;;;12.02;75.30;99744.94;4945322;29;20047;-96
2023/09/11 04:18:11;;;;;;;14.88;4.68;;;;;;;11.89;75.19;99732.78;4946432;29;20031;-95
2023/09/11 04:20:37;;;;;;;10.63;3.85;;;;;;;11.79;76.12;99730.06;4944548;29;20054;-95
2023/09/11 04:23:03;;;;;;;4.70;3.30;;;;;;;11.75;75.88;99735.16;4963446;29;20557;-96
2023/09/11 04:25:36;;;;;;;9.63;4.28;;;;;;;11.68;76.44;99735.44;4960989;28;20047;-95
2023/09/11 04:28:16;;;;;;;5.90;3.40;;;;;;;11.75;76.22;99740.56;4950975;28;20036;-96
2023/09/11 04:30:51;;;;;;;7.13;3.60;;;;;;;11.89;76.28;99757.06;4955214;29;20046;-96
2023/09/11 04:33:20;;;;;;;8.82;3.90;;;;;;;11.87;76.36;99754.63;4954625;29;20051;-96
2023/09/11 04:35:46;;;;;;;5.43;3.88;;;;;;;11.91;76.54;99761.13;4949163;29;20023;-96
2023/09/11 04:38:14;;;;;;;11.80;3.90;;;;;;;11.91;76.30;99752.19;4945441;29;20046;-96
2023/09/11 04:40:56;;;;;;;10.63;3.70;;;;;;;11.97;75.89;99742.22;4962139;29;20023;-96
2023/09/11 04:43:23;;;;;;;9.55;3.47;;;;;;;12.09;75.53;99756.28;4947363;29;20084;-96
2023/09/11 04:45:51;;;;;;;13.18;3.80;;;;;;;12.02;75.78;99744.94;4947889;29;20035;-96
2023/09/11 04:48:16;;;;;;;5.65;3.83;;;;;;;12.09;75.33;99750.88;4954337;29;20524;-96
2023/09/11 04:53:39;;;;;;;8.50;3.42;;;;;;;12.09;75.39;99758.97;4965416;29;20054;-96
2023/09/11 04:56:09;;;;;;;6.68;3.30;;;;;;;12.00;75.61;99747.91;4953959;29;20062;-96
2023/09/11 04:58:40;;;;;;;8.48;3.88;;;;;;;12.17;75.72;99768.44;4973942;29;20126;-96
2023/09/11 05:01:31;;;;;;;7.03;4.53;;;;;;;12.02;76.22;99734.97;4956128;29;20037;-96
2023/09/11 05:03:59;;;;;;;15.32;4.32;;;;;;;12.12;76.05;99745.75;4972690;28;20599;-95
2023/09/11 05:06:25;;;;;;;11.07;4.40;;;;;;;12.26;75.84;99734.41;4967413;28;20047;-95
2023/09/11 05:08:51;;;;;;;7.15;4.13;;;;;;;12.61;75.13;99754.38;4967831;28;20083;-95
2023/09/11 05:11:16;;;;;;;9.25;4.22;;;;;;;12.77;74.95;99749.75;4965676;28;20035;-95
2023/09/11 05:13:47;;;;;;;7.07;3.30;;;;;;;12.85;74.08;99750.00;4982767;28;20037;-95
2023/09/11 05:16:12;;;;;;;7.05;3.60;;;;;;;12.89;74.12;99751.06;4984421;28;20039;-95
2023/09/11 05:18:40;;;;;;;9.43;3.67;;;;;;;13.07;73.02;99744.28;4983191;28;20035;-96
2023/09/11 05:21:05;;;;;;;9.75;3.65;;;;;;;13.30;72.01;99756.38;4984493;28;20035;-96
2023/09/11 05:23:31;;;;;;;4.50;2.80;;;;;;;13.35;71.86;99750.13;4983891;28;20049;-96
2023/09/11 05:26:20;;;;;;;8.38;3.03;;;;;;;13.49;71.13;99748.44;4954627;28;20034;-96
2023/09/11 05:28:45;;;;;;;6.82;2.65;;;;;;;13.38;70.96;99746.06;4966540;28;20039;-96
2023/09/11 05:31:14;;;;;;;4.35;2.63;;;;;;;13.32;70.60;99742.56;4963982;29;20035;-96
2023/09/11 05:33:49;;;;;;;9.43;2.95;;;;;;;13.48;70.53;99754.94;4951496;29;20031;-96
2023/09/11 05:36:16;;;;;;;5.95;3.60;;;;;;;13.46;70.18;99743.59;4951766;28;20034;-96
2023/09/11 05:41:37;;;;;;;26.85;14.27;;;;;;;13.58;70.18;99737.03;5402949;23;20067;-96
2023/09/11 05:46:47;;;;;;;8.43;3.28;;;;;;;14.04;68.61;99745.66;5034281;23;20054;-96
2023/09/11 05:55:34;;;;;;;;;;;;;;;;;;;;;
2023/09/11 05:58:16;;;;;;;17.90;10.02;;;;;;;14.46;66.33;99746.13;4976666;28;20074;-96
2023/09/11 06:01:09;;;;;;;6.85;3.33;;;;;;;14.55;66.42;99761.53;4972041;28;20114;-96
2023/09/11 06:12:47;;;;;;;;;;;;;;;15.10;64.18;99774.00;4999964;28;20058;-96
2023/09/11 06:18:05;;;;;;;;;;;;;;;;;;;;;
2023/09/11 06:20:40;;;;;;;9.32;2.70;;;;;;;15.16;64.47;99760.06;4979415;28;20070;-96
2023/09/11 06:23:12;;;;;;;6.03;2.10;;;;;;;15.41;64.21;99779.84;5054745;23;20017;-96
2023/09/11 06:36:53;;;;;;;5.82;3.33;;;;;;;15.86;61.40;99772.22;4968182;23;20067;-96
2023/09/11 06:39:23;;;;;;;22.25;11.80;;;;;;;16.01;60.80;99787.50;4962104;29;20039;-95
2023/09/11 06:41:50;;;;;;;5.97;3.88;;;;;;;16.14;60.75;99780.50;4944587;29;20498;-96
2023/09/11 06:44:16;;;;;;;5.38;2.25;;;;;;;16.33;59.81;99775.88;4961190;29;20063;-94
2023/09/11 06:46:48;;;;;;;4.07;2.10;;;;;;;16.45;59.51;99780.03;4944908;29;20043;-95
2023/09/11 06:49:14;;;;;;;5.60;2.53;;;;;;;16.44;59.04;99794.72;4959930;29;20035;-94
2023/09/11 06:51:49;;;;;;;4.18;2.22;;;;;;;16.57;59.18;99785.78;4960431;29;20564;-95
2023/09/11 06:54:15;;;;;;;2.92;1.85;;;;;;;16.80;58.80;99799.53;4961957;29;20067;-95
2023/09/11 06:56:53;;;;;;;4.88;1.90;;;;;;;17.02;57.69;99797.00;4961918;29;20027;-96
2023/09/11 06:59:41;;;;;;;6.88;2.20;;;;;;;17.15;57.01;99787.22;4924676;29;20036;-96
2023/09/11 07:02:24;;;;;;;6.00;2.60;;;;;;;17.29;56.81;99798.91;4854576;29;20033;-95
2023/09/11 07:04:53;;;;;;;5.28;2.40;;;;;;;17.45;56.53;99785.81;4839734;29;20028;-94
2023/09/11 07:07:56;;;;;;;5.72;2.42;;;;;;;17.56;57.05;99808.97;4846963;29;20102;-96
2023/09/11 07:11:19;;;;;;;;;;;;;;;;;;;;;
2023/09/11 07:27:32;;;;;;;3.15;1.92;;;;;;;18.47;53.17;99790.06;5661479;23;20055;-96
2023/09/11 07:33:22;;;;;;;8.75;2.88;;;;;;;18.83;52.83;99786.47;1460820;23;21290;31
2023/09/11 07:35:54;;;;;;;6.95;2.20;;;;;;;18.71;52.61;99768.72;4906419;29;20062;-96
2023/09/11 08:48:33;;;;;;;7.68;3.90;;;;;;;21.84;38.03;99722.19;5160951;23;20040;-96
2023/09/11 09:50:09;;;;;;;3.00;1.10;;;;;;;23.53;27.29;99684.69;6108136;23;20021;31
2023/09/11 09:56:29;;;;;;;1.67;1.02;;;;;;;23.50;25.33;99655.94;4879330;29;20060;-95
2023/09/11 09:59:01;;;;;;;1.38;0.80;;;;;;;23.57;23.21;99658.91;4887274;29;20037;-96
2023/09/11 10:01:50;;;;;;;2.95;0.95;;;;;;;23.59;22.78;99637.38;4896918;29;20039;-94
2023/09/11 10:20:49;;;;;;;1.77;0.90;;;;;;;24.27;20.77;99652.19;4968084;29;20570;-93
2023/09/11 10:23:58;;;;;;;2.08;1.13;;;;;;;24.17;21.77;99625.19;4933252;29;20038;-96
2023/09/11 10:27:21;;;;;;;4.40;1.10;;;;;;;24.34;21.53;99641.38;4839562;29;20101;-96
2023/09/11 10:30:06;;;;;;;3.65;1.73;;;;;;;24.30;21.59;99623.97;4905756;29;20047;-94
2023/09/11 10:32:50;;;;;;;5.22;1.10;;;;;;;24.36;21.15;99627.22;4888634;29;20491;-94
2023/09/11 10:35:20;;;;;;;2.28;1.00;;;;;;;24.17;19.94;99612.22;4875103;29;20109;-95
2023/09/11 10:37:56;;;;;;;;;;;;;;;;;;;;;
2023/09/11 10:40:44;;;;;;;2.05;0.90;;;;;;;24.39;18.41;99627.31;4899830;29;20119;-93
2023/09/11 10:43:10;;;;;;;2.33;0.90;;;;;;;24.45;19.97;99638.09;4884371;29;20048;-93
2023/09/11 10:45:57;;;;;;;4.28;1.25;;;;;;;24.36;19.07;99617.03;4884068;29;20079;-92
2023/09/11 10:51:17;;;;;;;2.33;0.95;;;;;;;24.13;17.13;99602.28;4873232;29;20084;-92
2023/09/11 10:53:48;;;;;;;0.98;0.70;;;;;;;24.20;18.21;99617.03;4899034;29;20031;-91
2023/09/11 11:00:21;;;;;;;3.30;0.80;;;;;;;24.20;18.72;99592.25;4909454;29;20025;-93
2023/09/11 11:02:47;;;;;;;3.30;1.40;;;;;;;24.38;18.69;99625.75;4876055;29;20045;-93
2023/09/11 11:05:21;;;;;;;5.13;1.15;;;;;;;24.27;17.17;99616.41;4885314;29;20059;-93
2023/09/11 11:07:49;;;;;;;2.35;1.30;;;;;;;24.17;20.22;99592.94;4898437;29;20036;-93
2023/09/11 11:10:32;;;;;;;6.43;1.10;;;;;;;24.18;22.69;99593.78;4895750;29;20109;-91
2023/09/11 11:13:08;;;;;;;2.20;1.35;;;;;;;24.35;22.30;99604.41;4900355;29;20034;-94
2023/09/11 11:22:42;;;;;;;3.45;0.93;;;;;;;24.31;22.49;99592.53;4915566;29;20065;-91
2023/09/11 11:25:28;;;;;;;1.83;1.08;;;;;;;24.39;23.96;99596.25;4881474;29;20495;-92
2023/09/11 11:27:56;;;;;;;3.60;1.10;;;;;;;24.34;24.42;99596.50;4901958;29;20040;-91
2023/09/11 11:30:32;;;;;;;2.55;1.00;;;;;;;24.44;24.52;99601.47;4888548;29;20387;-93
2023/09/11 11:33:30;;;;;;;2.78;1.30;;;;;;;24.41;24.45;99583.72;4898666;29;20064;-94
2023/09/11 11:35:56;;;;;;;3.60;2.40;;;;;;;24.28;24.23;99579.50;4897530;29;20044;-93
2023/09/11 11:42:06;;;;;;;2.75;1.48;;;;;;;24.24;26.10;99572.28;4847443;29;20490;-95
2023/09/11 11:44:33;;;;;;;2.38;1.10;;;;;;;24.37;25.49;99571.84;4864032;29;20157;-95
2023/09/11 11:47:02;;;;;;;3.92;1.30;;;;;;;24.56;25.96;99592.34;4895707;29;20040;-93
2023/09/11 11:49:36;;;;;;;5.78;1.33;;;;;;;24.51;25.62;99579.66;4882780;29;20075;-93
2023/09/11 11:52:04;;;;;;;2.97;1.40;;;;;;;24.52;26.17;99567.50;4885430;29;20537;-94
2023/09/11 11:54:34;;;;;;;5.97;1.70;;;;;;;24.55;25.61;99566.78;4906423;29;20036;-94
2023/09/11 11:57:01;;;;;;;5.93;2.55;;;;;;;24.57;25.69;99566.41;4900819;29;20124;-90
2023/09/11 11:59:38;;;;;;;3.20;1.35;;;;;;;24.62;25.23;99560.66;4915452;29;20081;-91
2023/09/11 12:05:43;;;;;;;1.83;1.02;;;;;;;24.69;25.98;99557.25;4926727;29;20054;-90
2023/09/11 12:08:12;;;;;;;1.92;0.90;;;;;;;24.68;25.27;99548.19;4945005;29;20086;-92
2023/09/11 12:10:50;;;;;;;1.80;0.95;;;;;;;24.84;25.33;99559.19;4926066;29;20035;-91
2023/09/11 12:28:37;;;;;;;;;;;;;;;;;;;;;
2023/09/11 12:32:09;;;;;;;5.38;2.20;;;;;;;25.23;26.29;99541.91;4716441;30;20037;-96
2023/09/11 12:37:31;;;;;;;3.35;1.02;;;;;;;25.04;25.92;99507.63;5122784;23;20053;-94
2023/09/11 12:41:04;;;;;;;;;;;;;;;;;;;;;
2023/09/11 12:46:50;;;;;;;2.33;1.13;;;;;;;25.12;26.25;99522.38;4951954;28;20085;-93
2023/09/11 12:53:38;;;;;;;1.58;1.10;;;;;;;25.17;25.54;99519.31;4890874;29;20448;-93
2023/09/11 12:56:12;;;;;;;3.47;1.25;;;;;;;24.97;26.31;99496.47;4880510;29;20040;-92
2023/09/11 12:58:45;;;;;;;3.22;1.00;;;;;;;24.98;25.82;99498.84;4938043;29;20043;-92
2023/09/11 13:01:13;;;;;;;2.67;1.02;;;;;;;24.94;24.95;99494.44;4933571;28;20057;-92
2023/09/11 13:03:47;;;;;;;2.10;1.10;;;;;;;25.08;25.60;99499.44;4931923;28;20035;-90
2023/09/11 13:06:13;;;;;;;4.45;1.48;;;;;;;25.27;25.68;99531.75;4952523;28;20110;-92
2023/09/11 13:14:49;;;;;;;4.65;1.80;;;;;;;25.20;26.23;99500.13;4947141;26;20066;-94
2023/09/11 13:20:14;;;;;;;3.40;1.73;;;;;;;25.32;26.44;99488.16;4956076;29;20111;-93
2023/09/11 13:22:58;;;;;;;4.82;1.85;;;;;;;25.38;25.87;99488.63;4977328;28;20031;-95
2023/09/11 13:29:39;;;;;;;2.92;1.40;;;;;;;25.55;26.65;99503.94;4902644;29;20057;-92
2023/09/11 13:32:16;;;;;;;3.17;1.70;;;;;;;25.47;26.03;99485.66;4803147;29;20127;-93
2023/09/11 13:34:44;;;;;;;4.43;1.55;;;;;;;25.49;26.34;99483.34;4765464;30;20043;-94
2023/09/11 13:37:13;;;;;;;6.30;2.97;;;;;;;25.49;26.11;99478.59;4849917;29;20032;-94
2023/09/11 13:39:49;;;;;;;3.88;2.00;;;;;;;25.69;26.24;99493.16;4934793;28;20502;-94
2023/09/11 13:42:27;;;;;;;4.18;1.35;;;;;;;25.68;26.11;99471.44;4950425;29;20099;-92
2023/09/11 13:44:57;;;;;;;5.90;1.38;;;;;;;25.80;26.07;99480.34;4967465;28;20555;-94
2023/09/11 13:47:24;;;;;;;3.47;1.55;;;;;;;26.00;26.50;99494.06;4947784;29;20043;-95
2023/09/11 13:49:56;;;;;;;4.28;1.92;;;;;;;25.83;26.07;99453.97;4946007;29;20165;-95
2023/09/11 13:52:23;;;;;;;4.22;1.35;;;;;;;25.89;26.55;99462.72;4959532;28;20111;-94
2023/09/11 13:54:51;;;;;;;4.85;2.38;;;;;;;25.99;25.85;99473.97;4947320;29;20079;-94
2023/09/11 13:57:17;;;;;;;3.72;1.40;;;;;;;25.85;25.48;99459.91;4929676;29;20109;-94
2023/09/11 13:59:43;;;;;;;2.15;1.30;;;;;;;25.88;25.68;99447.31;4969021;28;20099;-94
2023/09/11 14:02:17;;;;;;;6.22;1.65;;;;;;;25.96;25.68;99452.66;4941391;29;20075;-94
2023/09/11 14:04:43;;;;;;;4.63;1.40;;;;;;;26.07;25.63;99447.28;4939085;29;20126;-94
2023/09/11 14:07:09;;;;;;;3.30;1.45;;;;;;;26.30;25.58;99474.84;4963718;29;20043;-93
2023/09/11 14:09:38;;;;;;;6.43;2.33;;;;;;;26.40;25.61;99470.63;4964000;29;20115;-95
2023/09/11 14:12:04;;;;;;;5.07;1.40;;;;;;;26.46;24.60;99463.63;4954660;28;20488;-94
2023/09/11 14:14:35;;;;;;;6.07;1.40;;;;;;;26.40;24.99;99443.03;4961792;28;20062;-94
2023/09/11 14:17:16;;;;;;;4.20;1.10;;;;;;;26.47;24.86;99454.16;4951371;29;20051;-94
2023/09/11 14:19:47;;;;;;;7.68;3.72;;;;;;;26.60;25.37;99447.28;4968157;28;20075;-94
2023/09/11 14:22:12;;;;;;;4.63;1.60;;;;;;;26.68;24.38;99433.53;4979487;28;20492;-95
2023/09/11 14:24:39;;;;;;;6.80;1.50;;;;;;;26.91;24.60;99459.09;4971272;28;20039;-94
2023/09/11 14:27:11;;;;;;;5.15;1.55;;;;;;;26.97;25.07;99463.09;4954012;28;20054;-93
2023/09/11 14:29:37;;;;;;;3.88;1.27;;;;;;;27.11;25.52;99454.19;4952519;29;20036;-95
2023/09/11 14:32:07;;;;;;;4.13;1.83;;;;;;;27.25;24.76;99463.81;4962823;28;20042;-94
2023/09/11 14:34:38;;;;;;;2.83;1.48;;;;;;;27.13;24.30;99448.28;4963626;28;20035;-95
2023/09/11 14:37:07;;;;;;;4.55;1.30;;;;;;;27.01;24.56;99449.34;4948132;29;20047;-94
2023/09/11 14:40:37;;;;;;;2.47;1.42;;;;;;;27.27;24.04;99455.94;4950807;28;20035;-95
2023/09/11 14:43:08;;;;;;;4.05;1.33;;;;;;;27.10;24.57;99441.56;4957187;28;20280;-94
2023/09/11 14:46:20;;;;;;;6.07;1.67;;;;;;;27.12;24.93;99449.44;4955046;29;20043;-95
2023/09/11 14:48:55;;;;;;;2.30;1.25;;;;;;;26.79;25.43;99423.41;4960544;28;20141;-95
2023/09/11 14:51:21;;;;;;;2.03;1.15;;;;;;;26.91;25.12;99441.72;4942995;28;20490;-93
2023/09/11 14:57:14;;;;;;;6.05;2.88;;;;;;;26.60;27.93;99427.94;4924706;29;20111;-94
2023/09/11 15:01:02;;;;;;;4.50;1.50;;;;;;;26.44;27.30;99419.03;4869779;29;20458;-95
2023/09/11 15:03:30;;;;;;;3.22;1.20;;;;;;;26.31;28.37;99417.66;4829917;29;20045;-92
2023/09/11 15:05:56;;;;;;;10.93;2.20;;;;;;;26.18;28.66;99423.38;4882291;29;20045;-93
2023/09/11 15:08:23;;;;;;;3.42;1.40;;;;;;;26.07;28.99;99418.91;4875166;29;20040;-95
2023/09/11 15:10:56;;;;;;;2.63;1.50;;;;;;;25.93;29.17;99422.22;4919183;29;20047;-94
2023/09/11 15:13:38;;;;;;;4.47;2.00;;;;;;;25.78;29.40;99404.63;4942747;29;20050;-94
2023/09/11 15:16:04;;;;;;;2.70;1.52;;;;;;;25.79;28.79;99414.50;4963124;28;20079;-92
2023/09/11 15:18:30;;;;;;;3.95;2.42;;;;;;;25.63;29.14;99417.41;4946867;29;20641;-93
2023/09/11 15:20:58;;;;;;;7.53;2.08;;;;;;;25.59;29.63;99427.59;4959961;28;20619;-92
2023/09/11 15:30:24;;;;;;;17.35;6.25;;;;;;;25.27;30.63;99422.28;4922757;29;20120;-93
2023/09/11 15:32:50;;;;;;;10.68;3.42;;;;;;;24.96;31.28;99390.97;4905044;29;20045;-93
2023/09/11 15:35:16;;;;;;;8.55;4.35;;;;;;;24.98;31.04;99418.97;4937652;29;20139;-94
2023/09/11 15:37:47;;;;;;;6.70;2.50;;;;;;;24.87;31.02;99409.72;4956412;29;20502;-94
2023/09/11 15:40:12;;;;;;;7.90;4.13;;;;;;;24.80;31.11;99404.06;4941775;28;20040;-94
2023/09/11 15:42:38;;;;;;;6.30;1.65;;;;;;;24.72;31.68;99411.38;4926105;29;20047;-93
2023/09/11 15:45:04;;;;;;;2.97;1.60;;;;;;;24.73;31.26;99423.97;4926384;29;20050;-95
2023/09/11 15:47:30;;;;;;;3.53;2.03;;;;;;;24.55;31.64;99409.03;4939761;29;20118;-93
2023/09/11 15:50:03;;;;;;;5.85;1.85;;;;;;;24.59;31.11;99421.75;4925332;29;20043;-92
2023/09/11 15:52:31;;;;;;;4.15;1.80;;;;;;;24.39;30.71;99401.63;4925210;29;20039;-93
2023/09/11 15:54:59;;;;;;;4.22;1.90;;;;;;;24.35;30.83;99405.47;4940601;28;20036;-93
2023/09/11 15:57:27;;;;;;;5.13;2.78;;;;;;;24.29;31.50;99402.19;4965482;28;20469;-92
2023/09/11 15:59:52;;;;;;;5.78;2.40;;;;;;;24.23;31.76;99403.63;4967322;28;20050;-92
2023/09/11 16:02:18;;;;;;;4.05;1.92;;;;;;;24.10;31.83;99389.22;4972676;28;20039;-92
2023/09/11 16:04:46;;;;;;;8.90;2.35;;;;;;;24.12;31.59;99399.84;4959278;28;20035;-93
2023/09/11 16:07:13;;;;;;;3.78;1.80;;;;;;;24.02;32.73;99390.19;4928666;29;20542;-92
2023/09/11 16:09:42;;;;;;;11.10;5.57;;;;;;;24.06;32.17;99401.28;4944368;29;20071;-90
2023/09/11 16:12:08;;;;;;;8.52;4.70;;;;;;;24.02;32.76;99405.91;4941581;29;20051;-92
2023/09/11 16:14:33;;;;;;;6.13;3.00;;;;;;;23.86;32.59;99390.22;4941377;29;20039;-91
2023/09/11 16:16:59;;;;;;;10.18;3.33;;;;;;;23.75;32.82;99387.19;4959748;29;20122;-92
2023/09/11 16:19:25;;;;;;;9.45;3.05;;;;;;;23.77;33.19;99406.13;4926910;29;20039;-91
2023/09/11 16:21:50;;;;;;;6.60;4.00;;;;;;;23.63;33.31;99397.50;4943560;28;20106;-92
2023/09/11 16:24:16;;;;;;;9.93;3.97;;;;;;;23.54;33.47;99390.22;4941422;29;20043;-94
2023/09/11 16:26:43;;;;;;;10.98;5.43;;;;;;;23.47;33.67;99395.56;4959136;28;20046;-92
2023/09/11 16:29:09;;;;;;;9.55;4.30;;;;;;;23.29;33.45;99378.63;4943865;29;20027;-93
2023/09/11 16:31:35;;;;;;;12.05;4.30;;;;;;;23.31;33.84;99397.50;4941809;28;20047;-93
2023/09/11 16:34:06;;;;;;;16.98;4.63;;;;;;;23.22;34.21;99407.84;4957916;29;20038;-91
2023/09/11 16:36:33;;;;;;;10.50;4.07;;;;;;;23.07;35.08;99395.69;4941186;29;20524;-91
2023/09/11 16:38:59;;;;;;;8.45;3.97;;;;;;;23.07;35.20;99401.97;4943220;29;20039;-91
2023/09/11 16:41:24;;;;;;;9.90;3.33;;;;;;;23.08;34.79;99411.81;4929275;29;20098;-92
2023/09/11 16:43:52;;;;;;;8.57;3.42;;;;;;;22.92;35.12;99400.75;4946826;28;20035;-92
2023/09/11 16:46:18;;;;;;;9.18;3.88;;;;;;;22.94;36.12;99403.94;4944982;29;20094;-92
2023/09/11 16:48:44;;;;;;;12.18;5.00;;;;;;;22.81;35.97;99394.19;4945550;29;20085;-91
2023/09/11 16:51:11;;;;;;;27.08;8.77;;;;;;;22.87;36.18;99419.44;4960639;29;20035;-90
2023/09/11 16:53:36;;;;;;;23.60;8.00;;;;;;;22.70;36.10;99413.13;4960330;28;20536;-92
2023/09/11 16:56:05;;;;;;;16.17;5.88;;;;;;;22.68;36.66;99423.63;4945359;29;20035;-91
2023/09/11 16:58:33;;;;;;;11.25;4.30;;;;;;;22.53;37.28;99418.88;4944410;29;20031;-92
2023/09/11 17:01:09;;;;;;;10.73;4.22;;;;;;;22.55;37.51;99422.06;4941316;29;20047;-92